createdAt,value
2022-11-20T00:00:58.999Z,100397.81
2022-11-20T00:03:27.187Z,100392.34
2022-11-20T00:05:54.879Z,100399.38
2022-11-20T00:08:23.940Z,100397.19
2022-11-20T00:10:51.689Z,100398.38
2022-11-20T00:13:19.411Z,100403.41
2022-11-20T00:15:47.247Z,100396.38
2022-11-20T00:18:15.031Z,100396.47
2022-11-20T00:20:42.753Z,100398.03
2022-11-20T00:23:10.452Z,100394.22
2022-11-20T00:25:39.546Z,100380.91
2022-11-20T00:28:07.439Z,100395.75
2022-11-20T00:30:35.201Z,100394.69
2022-11-20T00:33:02.950Z,100392.91
2022-11-20T00:35:30.753Z,100358.44
2022-11-20T00:37:58.451Z,100396.22
2022-11-20T00:40:26.192Z,100370.47
2022-11-20T00:42:55.325Z,100394.06
2022-11-20T00:45:23.097Z,100367.53
2022-11-20T00:47:50.828Z,100389.28
2022-11-20T00:50:18.668Z,100394.31
2022-11-20T00:52:46.431Z,100393.25
2022-11-20T00:55:14.245Z,100373.97
2022-11-20T00:57:42.021Z,100390.03
2022-11-20T01:00:12.187Z,100393.69
2022-11-20T01:02:39.942Z,100385.72
2022-11-20T01:05:08.101Z,100386.78
2022-11-20T01:07:35.851Z,100357.94
2022-11-20T01:10:04.299Z,100382.59
2022-11-20T01:12:32.018Z,100388.16
2022-11-20T01:14:59.737Z,100384.47
2022-11-20T01:17:28.784Z,100372.78
2022-11-20T01:19:56.590Z,100391.19
2022-11-20T01:22:24.428Z,100335.91
2022-11-20T01:24:52.203Z,100384.03
2022-11-20T01:27:19.948Z,100377.56
2022-11-20T01:29:47.751Z,100390.34
2022-11-20T01:32:15.601Z,100385.72
2022-11-20T01:34:44.691Z,100384.75
2022-11-20T01:37:12.474Z,100383.19
2022-11-20T01:39:40.244Z,100386.56
2022-11-20T01:42:27.283Z,100250.28
2022-11-20T01:44:58.264Z,100376.50
2022-11-20T01:47:37.426Z,100383.63
2022-11-20T01:50:13.619Z,100363.69
2022-11-20T01:52:45.068Z,100338.13
2022-11-20T01:55:17.013Z,100338.81
2022-11-20T01:57:47.610Z,100373.53
2022-11-20T02:00:18.252Z,100366.59
2022-11-20T02:02:50.229Z,100330.25
2022-11-20T02:05:26.077Z,100337.19
2022-11-20T02:07:56.363Z,100358.72
2022-11-20T02:10:24.105Z,100364.22
2022-11-20T02:13:09.653Z,100363.25
2022-11-20T02:15:37.473Z,100355.28
2022-11-20T02:18:06.438Z,100331.59
2022-11-20T02:20:35.621Z,100361.34
2022-11-20T02:23:10.137Z,100356.09
2022-11-20T02:25:40.525Z,100350.63
2022-11-20T02:28:08.362Z,100345.59
2022-11-20T02:30:36.074Z,100347.06
2022-11-20T02:33:03.812Z,100333.00
2022-11-20T02:35:45.974Z,100331.31
2022-11-20T02:38:14.012Z,100334.88
2022-11-20T02:40:43.240Z,100336.78
2022-11-20T02:43:11.537Z,100331.75
2022-11-20T02:45:39.518Z,100333.44
2022-11-20T02:48:08.634Z,100332.38
2022-11-20T02:50:40.021Z,100331.97
2022-11-20T02:53:08.617Z,100331.97
2022-11-20T02:55:37.136Z,100323.16
2022-11-20T02:58:06.285Z,100318.84
2022-11-20T03:00:34.486Z,100250.97
2022-11-20T03:03:02.206Z,100313.50
2022-11-20T03:05:30.024Z,100323.25
2022-11-20T03:07:57.736Z,100309.31
2022-11-20T03:10:25.468Z,100312.66
2022-11-20T03:12:55.314Z,100308.72
2022-11-20T03:15:25.087Z,100317.66
2022-11-20T03:17:55.665Z,100267.69
2022-11-20T03:20:23.459Z,100316.44
2022-11-20T03:22:51.209Z,100252.31
2022-11-20T03:25:18.961Z,100330.16
2022-11-20T03:27:46.809Z,100320.50
2022-11-20T03:30:15.116Z,100312.84
2022-11-20T03:32:44.439Z,100312.59
2022-11-20T03:35:12.138Z,100315.47
2022-11-20T03:37:39.962Z,100328.06
2022-11-20T03:40:08.897Z,100332.28
2022-11-20T03:42:48.578Z,100330.25
2022-11-20T03:45:18.105Z,100329.53
2022-11-20T03:47:48.109Z,100325.34
2022-11-20T03:50:17.109Z,100297.91
2022-11-20T03:52:44.858Z,100320.94
2022-11-20T03:55:12.568Z,100326.06
2022-11-20T03:57:40.319Z,100320.94
2022-11-20T04:00:09.100Z,100318.56
2022-11-20T04:02:36.847Z,100313.16
2022-11-20T04:05:06.584Z,100315.69
2022-11-20T04:07:36.399Z,100317.59
2022-11-20T04:10:04.845Z,100312.13
2022-11-20T04:12:34.506Z,100303.38
2022-11-20T04:15:02.272Z,100298.94
2022-11-20T04:17:30.019Z,100297.91
2022-11-20T04:19:57.749Z,100288.03
2022-11-20T04:22:26.985Z,100295.16
2022-11-20T04:24:54.767Z,100288.69
2022-11-20T04:27:22.836Z,100266.94
2022-11-20T04:29:50.555Z,100261.53
2022-11-20T04:32:18.324Z,100311.34
2022-11-20T04:34:46.040Z,100306.09
2022-11-20T04:37:13.785Z,100305.16
2022-11-20T04:39:43.053Z,100305.16
2022-11-20T04:42:29.076Z,100295.16
2022-11-20T04:44:57.117Z,100302.31
2022-11-20T04:47:24.878Z,100307.66
2022-11-20T04:49:52.804Z,100313.03
2022-11-20T04:52:20.719Z,100307.78
2022-11-20T04:54:49.948Z,100311.00
2022-11-20T04:57:17.654Z,100305.88
2022-11-20T04:59:45.404Z,100319.09
2022-11-20T05:02:13.656Z,100311.13
2022-11-20T05:04:41.362Z,100299.75
2022-11-20T05:07:09.162Z,100318.88
2022-11-20T05:09:36.952Z,100316.38
2022-11-20T05:12:06.537Z,100321.19
2022-11-20T05:14:34.344Z,100316.38
2022-11-20T05:17:02.249Z,100325.44
2022-11-20T05:19:29.992Z,100322.81
2022-11-20T05:21:58.600Z,100316.47
2022-11-20T05:24:26.325Z,100323.81
2022-11-20T05:26:54.057Z,100301.06
2022-11-20T05:29:23.468Z,100318.56
2022-11-20T05:31:51.265Z,100312.84
2022-11-20T05:34:18.949Z,100307.69
2022-11-20T05:36:46.652Z,100306.03
2022-11-20T05:39:14.335Z,100307.81
2022-11-20T05:41:42.061Z,100307.81
2022-11-20T05:44:12.744Z,100300.88
2022-11-20T05:46:41.860Z,100311.50
2022-11-20T05:49:09.597Z,100309.59
2022-11-20T05:51:37.276Z,100315.94
2022-11-20T05:54:05.004Z,100309.22
2022-11-20T05:56:33.571Z,100306.72
2022-11-20T05:59:01.291Z,100305.38
2022-11-20T06:01:29.034Z,100302.97
2022-11-20T06:03:58.166Z,100303.47
2022-11-20T06:06:26.948Z,100284.56
2022-11-20T06:08:54.825Z,100294.84
2022-11-20T06:11:22.896Z,100303.94
2022-11-20T06:13:53.620Z,100287.19
2022-11-20T06:16:22.718Z,100297.34
2022-11-20T06:18:50.763Z,100304.88
2022-11-20T06:21:22.170Z,100308.69
2022-11-20T06:23:50.928Z,100298.50
2022-11-20T06:26:20.813Z,100301.81
2022-11-20T06:28:48.807Z,100293.84
2022-11-20T06:31:18.767Z,100294.28
2022-11-20T06:33:50.322Z,100291.13
2022-11-20T06:36:24.214Z,100284.22
2022-11-20T06:38:52.137Z,100294.53
2022-11-20T06:41:22.257Z,100300.63
2022-11-20T06:43:50.656Z,100313.63
2022-11-20T06:46:19.712Z,100312.78
2022-11-20T06:48:48.053Z,100309.88
2022-11-20T06:51:16.176Z,100313.66
2022-11-20T06:53:45.653Z,100305.59
2022-11-20T06:56:13.378Z,100320.38
2022-11-20T06:58:41.559Z,100309.16
2022-11-20T07:01:11.784Z,100310.50
2022-11-20T07:03:40.335Z,100313.66
2022-11-20T07:06:11.728Z,100296.50
2022-11-20T07:08:39.497Z,100312.63
2022-11-20T07:11:09.100Z,100320.28
2022-11-20T07:13:36.941Z,100325.41
2022-11-20T07:16:06.843Z,100330.25
2022-11-20T07:18:35.149Z,100290.78
2022-11-20T07:21:08.919Z,100333.38
2022-11-20T07:23:36.796Z,100337.19
2022-11-20T07:26:05.926Z,100337.69
2022-11-20T07:28:35.730Z,100335.06
2022-11-20T07:31:04.590Z,100338.00
2022-11-20T07:33:32.486Z,100340.41
2022-11-20T07:36:00.651Z,100346.38
2022-11-20T07:38:28.433Z,100344.59
2022-11-20T07:40:57.197Z,100335.56
2022-11-20T07:43:26.111Z,100343.34
2022-11-20T07:45:57.060Z,100331.56
2022-11-20T07:48:25.040Z,100332.50
2022-11-20T07:50:55.975Z,100328.84
2022-11-20T07:53:23.793Z,100330.28
2022-11-20T07:55:53.279Z,100326.31
2022-11-20T07:58:21.225Z,100320.91
2022-11-20T08:00:49.200Z,100322.16
2022-11-20T08:03:24.421Z,100323.41
2022-11-20T08:05:52.954Z,100325.31
2022-11-20T08:08:20.824Z,100325.31
2022-11-20T08:10:48.580Z,100306.22
2022-11-20T08:13:33.849Z,100317.50
2022-11-20T08:16:01.606Z,100316.44
2022-11-20T08:18:32.500Z,100308.47
2022-11-20T08:21:03.201Z,100298.63
2022-11-20T08:23:31.161Z,100314.53
2022-11-20T08:25:58.895Z,100322.53
2022-11-20T08:28:26.607Z,100322.41
2022-11-20T08:31:00.468Z,100325.41
2022-11-20T08:33:29.831Z,100318.72
2022-11-20T08:36:00.961Z,100326.88
2022-11-20T08:38:28.760Z,100333.91
2022-11-20T08:41:16.702Z,100334.63
2022-11-20T08:43:44.574Z,100337.16
2022-11-20T08:46:12.793Z,100338.56
2022-11-20T08:48:43.413Z,100335.94
2022-11-20T08:51:13.911Z,100327.63
2022-11-20T08:53:42.155Z,100330.25
2022-11-20T08:56:12.075Z,100332.44
2022-11-20T08:59:02.304Z,100323.22
2022-11-20T09:01:28.633Z,100328.03
2022-11-20T09:04:00.720Z,100328.88
2022-11-20T09:06:31.600Z,100326.72
2022-11-20T09:09:02.121Z,100335.56
2022-11-20T09:11:34.214Z,100332.19
2022-11-20T09:14:03.747Z,100339.59
2022-11-20T09:16:31.808Z,100327.56
2022-11-20T09:19:28.589Z,100330.91
2022-11-20T09:21:58.269Z,100298.22
2022-11-20T09:24:40.666Z,100320.56
2022-11-20T09:27:08.754Z,100310.41
2022-11-20T09:29:36.557Z,100312.22
2022-11-20T09:32:04.369Z,100315.34
2022-11-20T09:34:33.590Z,100305.31
2022-11-20T09:37:04.530Z,100303.91
2022-11-20T09:39:34.680Z,100300.94
2022-11-20T09:42:23.000Z,100291.75
2022-11-20T09:45:12.473Z,100294.88
2022-11-20T09:47:53.136Z,100295.34
2022-11-20T09:50:33.009Z,100306.94
2022-11-20T09:53:14.011Z,100293.78
2022-11-20T09:55:42.339Z,100300.72
2022-11-20T09:58:17.951Z,100302.97
2022-11-20T10:00:46.544Z,100290.78
2022-11-20T10:03:19.854Z,100293.91
2022-11-20T10:05:53.212Z,100299.16
2022-11-20T10:08:24.824Z,100293.41
2022-11-20T10:10:58.755Z,100306.56
2022-11-20T10:13:37.972Z,100297.50
2022-11-20T10:16:19.071Z,100303.28
2022-11-20T10:19:02.836Z,100291.28
2022-11-20T10:21:43.347Z,100298.44
2022-11-20T10:24:31.582Z,100279.81
2022-11-20T10:27:16.477Z,100285.78
2022-11-20T10:29:48.398Z,100278.72
2022-11-20T10:32:21.587Z,100277.88
2022-11-20T10:34:55.063Z,100274.31
2022-11-20T10:37:26.407Z,100251.16
2022-11-20T10:40:02.705Z,100267.63
2022-11-20T10:42:34.699Z,100256.88
2022-11-20T10:45:15.553Z,100261.66
2022-11-20T10:47:43.705Z,100224.16
2022-11-20T10:50:21.844Z,100229.66
2022-11-20T10:53:01.031Z,100243.16
2022-11-20T10:55:37.933Z,100232.66
2022-11-20T10:58:16.190Z,100241.88
2022-11-20T11:00:44.168Z,100220.34
2022-11-20T11:03:24.587Z,100216.88
2022-11-20T11:06:00.583Z,100217.25
2022-11-20T11:08:36.350Z,100217.72
2022-11-20T11:11:18.041Z,100212.47
2022-11-20T11:13:45.910Z,100212.63
2022-11-20T11:16:23.569Z,100207.47
2022-11-20T11:18:51.804Z,100200.38
2022-11-20T11:21:26.093Z,100195.72
2022-11-20T11:24:19.621Z,100196.81
2022-11-20T11:26:59.902Z,100173.78
2022-11-20T11:29:30.413Z,100188.38
2022-11-20T11:32:07.444Z,100166.84
2022-11-20T11:34:35.588Z,100184.06
2022-11-20T11:37:05.276Z,100182.41
2022-11-20T11:39:35.674Z,100180.22
2022-11-20T11:42:03.712Z,100174.72
2022-11-20T11:44:51.520Z,100158.03
2022-11-20T11:47:25.831Z,100164.00
2022-11-20T11:50:03.479Z,100155.59
2022-11-20T11:52:33.250Z,100157.03
2022-11-20T11:55:10.219Z,100161.09
2022-11-20T11:57:45.623Z,100149.75
2022-11-20T12:00:16.278Z,100141.50
2022-11-20T12:02:56.190Z,100131.47
2022-11-20T12:05:26.897Z,100119.28
2022-11-20T12:07:59.872Z,100129.91
2022-11-20T12:10:43.295Z,100119.97
2022-11-20T12:13:22.644Z,100125.22
2022-11-20T12:15:50.661Z,100119.97
2022-11-20T12:18:21.145Z,100119.75
2022-11-20T12:20:59.630Z,100116.41
2022-11-20T12:23:36.642Z,100108.53
2022-11-20T12:26:16.062Z,100108.66
2022-11-20T12:29:00.185Z,100105.78
2022-11-20T12:31:52.421Z,100102.81
2022-11-20T12:34:41.862Z,100104.47
2022-11-20T12:37:18.396Z,100091.59
2022-11-20T12:39:50.941Z,100096.09
2022-11-20T12:43:07.679Z,100092.75
2022-11-20T12:46:07.576Z,100072.75
2022-11-20T12:48:51.774Z,100090.13
2022-11-20T12:51:34.229Z,100083.69
2022-11-20T12:54:26.338Z,100079.63
2022-11-20T12:57:04.203Z,100072.44
2022-11-20T12:59:58.357Z,100067.38
2022-11-20T13:02:32.535Z,100058.78
2022-11-20T13:05:18.015Z,100043.72
2022-11-20T13:07:47.012Z,100035.34
2022-11-20T13:10:20.804Z,100036.50
2022-11-20T13:12:53.715Z,100033.34
2022-11-20T13:15:38.549Z,100014.91
2022-11-20T13:18:11.554Z,100022.06
2022-11-20T13:20:45.328Z,100019.31
2022-11-20T13:23:25.786Z,100009.06
2022-11-20T13:26:04.392Z,100010.72
2022-11-20T13:28:35.422Z,100005.47
2022-11-20T13:31:07.878Z,100001.88
2022-11-20T13:33:38.674Z,99984.94
2022-11-20T13:36:11.730Z,99993.03
2022-11-20T13:38:46.076Z,99985.84
2022-11-20T13:41:34.872Z,99990.00
2022-11-20T13:44:13.216Z,99989.75
2022-11-20T13:46:45.459Z,99986.09
2022-11-20T13:49:20.625Z,99971.47
2022-11-20T13:51:51.635Z,99962.63
2022-11-20T13:54:53.597Z,99965.94
2022-11-20T13:57:51.812Z,99957.06
2022-11-20T14:00:21.938Z,99954.03
2022-11-20T14:03:03.004Z,99952.81
2022-11-20T14:05:34.361Z,99940.50
2022-11-20T14:08:06.008Z,99937.72
2022-11-20T14:10:33.990Z,99934.16
2022-11-20T14:13:12.930Z,99934.16
2022-11-20T14:15:44.796Z,99923.88
2022-11-20T14:18:16.840Z,99922.78
2022-11-20T14:20:45.170Z,99908.31
2022-11-20T14:23:13.270Z,99907.84
2022-11-20T14:25:45.133Z,99903.09
2022-11-20T14:28:25.353Z,99904.50
2022-11-20T14:30:53.326Z,99899.00
2022-11-20T14:33:25.795Z,99890.16
2022-11-20T14:35:55.789Z,99886.81
2022-11-20T14:38:27.186Z,99887.06
2022-11-20T14:40:54.899Z,99883.88
2022-11-20T14:43:26.255Z,99879.56
2022-11-20T14:46:02.316Z,99857.94
2022-11-20T14:48:36.005Z,99873.63
2022-11-20T14:51:03.910Z,99871.41
2022-11-20T14:53:31.657Z,99865.75
2022-11-20T14:56:01.305Z,99843.00
2022-11-20T14:58:30.830Z,99857.44
2022-11-20T15:01:00.535Z,99852.72
2022-11-20T15:03:34.993Z,99853.41
2022-11-20T15:06:03.142Z,99851.06
2022-11-20T15:08:31.130Z,99853.69
2022-11-20T15:10:59.517Z,99846.94
2022-11-20T15:13:31.532Z,99841.66
2022-11-20T15:16:00.882Z,99842.38
2022-11-20T15:18:34.854Z,99839.47
2022-11-20T15:21:06.412Z,99827.44
2022-11-20T15:23:34.197Z,99821.59
2022-11-20T15:26:02.011Z,99829.22
2022-11-20T15:28:33.142Z,99825.63
2022-11-20T15:31:01.652Z,99816.88
2022-11-20T15:33:29.424Z,99830.63
2022-11-20T15:35:57.142Z,99825.09
2022-11-20T15:38:26.305Z,99812.63
2022-11-20T15:40:54.400Z,99805.56
2022-11-20T15:43:22.192Z,99797.53
2022-11-20T15:45:51.944Z,99705.06
2022-11-20T15:48:22.020Z,99739.19
2022-11-20T15:50:54.903Z,99778.56
2022-11-20T15:53:22.680Z,99774.13
2022-11-20T15:55:51.923Z,99773.31
2022-11-20T15:58:19.684Z,99769.97
2022-11-20T16:00:48.045Z,99750.84
2022-11-20T16:03:17.378Z,99770.28
2022-11-20T16:05:45.809Z,99748.09
2022-11-20T16:08:13.753Z,99765.69
2022-11-20T16:10:41.928Z,99736.19
2022-11-20T16:13:34.077Z,99746.44
2022-11-20T16:16:06.381Z,99739.38
2022-11-20T16:18:35.033Z,99693.28
2022-11-20T16:21:03.476Z,99734.84
2022-11-20T16:23:31.418Z,99726.25
2022-11-20T16:25:59.332Z,99728.75
2022-11-20T16:28:28.395Z,99726.25
2022-11-20T16:30:56.138Z,99720.03
2022-11-20T16:33:23.845Z,99701.75
2022-11-20T16:35:51.605Z,99717.69
2022-11-20T16:38:19.371Z,99719.63
2022-11-20T16:40:47.094Z,99677.25
2022-11-20T16:43:16.029Z,99686.94
2022-11-20T16:45:46.501Z,99702.19
2022-11-20T16:48:16.047Z,99683.34
2022-11-20T16:50:49.514Z,99704.69
2022-11-20T16:53:17.561Z,99695.84
2022-11-20T16:55:45.720Z,99686.16
2022-11-20T16:58:13.611Z,99688.63
2022-11-20T17:00:45.630Z,99682.56
2022-11-20T17:03:18.091Z,99676.72
2022-11-20T17:05:45.852Z,99603.63
2022-11-20T17:08:13.606Z,99669.38
2022-11-20T17:10:42.506Z,99660.25
2022-11-20T17:13:10.258Z,99658.44
2022-11-20T17:15:38.461Z,99658.19
2022-11-20T17:18:06.311Z,99650.44
2022-11-20T17:20:35.460Z,99646.84
2022-11-20T17:23:03.162Z,99639.91
2022-11-20T17:25:34.300Z,99625.81
2022-11-20T17:28:02.060Z,99599.53
2022-11-20T17:30:29.920Z,99538.66
2022-11-20T17:32:57.658Z,99605.88
2022-11-20T17:35:25.461Z,99593.16
2022-11-20T17:37:54.594Z,99591.19
2022-11-20T17:40:27.160Z,99555.78
2022-11-20T17:42:55.617Z,99582.78
2022-11-20T17:45:23.348Z,99579.03
2022-11-20T17:47:51.174Z,99575.72
2022-11-20T17:50:19.026Z,99563.25
2022-11-20T17:52:46.869Z,99560.22
2022-11-20T17:55:17.165Z,99506.00
2022-11-20T17:57:53.197Z,99545.41
2022-11-20T18:00:22.298Z,99545.53
2022-11-20T18:02:50.463Z,99533.38
2022-11-20T18:05:18.407Z,99525.63
2022-11-20T18:07:46.292Z,99512.06
2022-11-20T18:10:14.150Z,99513.47
2022-11-20T18:12:43.943Z,99527.41
2022-11-20T18:15:11.794Z,99536.13
2022-11-20T18:17:39.646Z,99546.66
2022-11-20T18:22:57.055Z,99497.56
2022-11-20T18:25:24.907Z,99483.84
2022-11-20T18:27:54.042Z,99517.72
2022-11-20T18:30:22.149Z,99513.44
2022-11-20T18:32:50.130Z,99512.31
2022-11-20T18:35:18.136Z,99498.22
2022-11-20T18:37:45.956Z,99512.31
2022-11-20T18:40:14.930Z,99495.44
2022-11-20T18:43:00.247Z,99463.94
2022-11-20T18:45:30.364Z,99502.94
2022-11-20T18:47:58.220Z,99515.06
2022-11-20T18:50:26.056Z,99481.75
2022-11-20T18:52:54.092Z,99496.53
2022-11-20T18:55:25.074Z,99487.13
2022-11-20T18:57:54.013Z,99473.81
2022-11-20T19:00:21.916Z,99474.53
2022-11-20T19:02:54.091Z,99451.19
2022-11-20T19:05:21.910Z,99480.47
2022-11-20T19:07:49.654Z,99470.50
2022-11-20T19:10:20.283Z,99463.72
2022-11-20T19:12:48.065Z,99454.41
2022-11-20T19:15:16.024Z,99438.13
2022-11-20T19:17:43.785Z,99458.03
2022-11-20T19:20:13.577Z,99455.22
2022-11-20T19:22:41.332Z,99445.13
2022-11-20T19:25:09.675Z,99446.22
2022-11-20T19:27:37.383Z,99444.97
2022-11-20T19:30:06.012Z,99443.19
2022-11-20T19:32:35.245Z,99442.19
2022-11-20T19:35:03.589Z,99446.78
2022-11-20T19:37:35.174Z,99429.09
2022-11-20T19:40:04.697Z,99450.50
2022-11-20T19:42:32.756Z,99449.91
2022-11-20T19:45:00.544Z,99447.81
2022-11-20T19:47:52.779Z,99435.50
2022-11-20T19:50:16.876Z,99443.59
2022-11-20T19:52:45.994Z,99434.03
2022-11-20T19:55:13.833Z,99420.88
2022-11-20T19:57:41.559Z,99405.38
2022-11-20T20:00:10.605Z,99413.97
2022-11-20T20:02:38.429Z,99419.75
2022-11-20T20:05:07.027Z,99405.25
2022-11-20T20:07:34.865Z,99410.91
2022-11-20T20:10:04.208Z,99414.09
2022-11-20T20:12:31.958Z,99420.88
2022-11-20T20:14:59.706Z,99404.88
2022-11-20T20:17:27.544Z,99426.97
2022-11-20T20:19:55.265Z,99383.09
2022-11-20T20:22:23.001Z,99414.81
2022-11-20T20:24:52.010Z,99409.88
2022-11-20T20:27:21.279Z,99432.75
2022-11-20T20:29:49.096Z,99433.00
2022-11-20T20:32:16.881Z,99430.13
2022-11-20T20:34:44.619Z,99437.19
2022-11-20T20:37:12.377Z,99449.81
2022-11-20T20:39:40.205Z,99458.75
2022-11-20T20:42:07.968Z,99448.25
2022-11-20T20:44:54.696Z,99447.97
2022-11-20T20:47:22.431Z,99460.16
2022-11-20T20:49:50.266Z,99456.25
2022-11-20T20:52:17.984Z,99428.78
2022-11-20T20:54:45.857Z,99448.78
2022-11-20T20:57:13.799Z,99470.66
2022-11-20T20:59:42.870Z,99466.38
2022-11-20T21:02:11.783Z,99473.31
2022-11-20T21:04:39.570Z,99473.00
2022-11-20T21:07:07.386Z,99483.41
2022-11-20T21:09:35.138Z,99467.50
2022-11-20T21:12:02.841Z,99458.91
2022-11-20T21:14:30.601Z,99476.47
2022-11-20T21:16:59.698Z,99466.28
2022-11-20T21:19:27.760Z,99488.41
2022-11-20T21:22:00.170Z,99468.22
2022-11-20T21:24:28.705Z,99451.25
2022-11-20T21:26:57.337Z,99481.88
2022-11-20T21:29:27.187Z,99494.50
2022-11-20T21:31:55.556Z,99498.78
2022-11-20T21:34:25.746Z,99489.19
2022-11-20T21:36:54.184Z,99490.00
2022-11-20T21:39:22.924Z,99481.88
2022-11-20T21:41:50.740Z,99484.22
2022-11-20T21:44:33.805Z,99487.44
2022-11-20T21:47:01.653Z,99482.72
2022-11-20T21:49:30.720Z,99492.97
2022-11-20T21:51:58.448Z,99492.69
2022-11-20T21:54:26.578Z,99502.25
2022-11-20T21:56:54.571Z,99501.41
2022-11-20T21:59:22.803Z,99504.19
2022-11-20T22:01:50.853Z,99511.66
2022-11-20T22:04:18.579Z,99512.34
2022-11-20T22:06:48.766Z,99503.97
2022-11-20T22:09:16.677Z,99505.91
2022-11-20T22:11:44.487Z,99479.53
2022-11-20T22:14:24.083Z,99532.78
2022-11-20T22:16:53.661Z,99536.94
2022-11-20T22:19:22.608Z,99504.97
2022-11-20T22:21:52.074Z,99518.94
2022-11-20T22:24:22.272Z,99513.69
2022-11-20T22:26:50.828Z,99520.31
2022-11-20T22:29:20.857Z,99523.94
2022-11-20T22:31:48.876Z,99523.09
2022-11-20T22:34:16.641Z,99528.59
2022-11-20T22:36:44.609Z,99529.97
2022-11-20T22:39:14.474Z,99525.41
2022-11-20T22:41:42.224Z,99529.72
2022-11-20T22:44:10.237Z,99532.78
2022-11-20T22:46:38.809Z,99530.69
2022-11-20T22:49:08.527Z,99547.16
2022-11-20T22:51:38.660Z,99547.00
2022-11-20T22:54:06.818Z,99552.41
2022-11-20T22:56:36.038Z,99548.69
2022-11-20T22:59:04.021Z,99554.63
2022-11-20T23:01:33.756Z,99552.97
2022-11-20T23:04:03.597Z,99563.91
2022-11-20T23:06:34.133Z,99556.00
2022-11-20T23:09:02.386Z,99568.63
2022-11-20T23:11:31.977Z,99549.41
2022-11-20T23:14:02.776Z,99552.72
2022-11-20T23:16:32.225Z,99555.34
2022-11-20T23:19:01.517Z,99551.63
2022-11-20T23:21:29.544Z,99562.28
2022-11-20T23:23:59.041Z,99565.31
2022-11-20T23:26:28.830Z,99564.91
2022-11-20T23:28:58.480Z,99554.94
2022-11-20T23:31:29.861Z,99557.28
2022-11-20T23:33:58.248Z,99563.81
2022-11-20T23:36:26.132Z,99562.44
2022-11-20T23:38:53.958Z,99572.09
2022-11-20T23:41:21.706Z,99559.91
2022-11-20T23:43:49.488Z,99560.47
2022-11-20T23:46:17.279Z,99552.72
2022-11-20T23:48:46.634Z,99552.28
2022-11-20T23:51:15.156Z,99562.16
2022-11-20T23:53:42.917Z,99572.69
2022-11-20T23:56:14.240Z,99577.94
2022-11-20T23:58:42.618Z,99574.06
